Terminal Aerodrome Forecast
Issued by NWS

Home | Current Version | Previous Version | Text Only | Print | Product List | Glossary Off
Versions: 1 2 3 4 5 6 7 8 9 10 11 12 13 14 15

000
FTUS43 KTOP 240500
TAFMHK
TAF
KMHK 240520Z 2406/2506 09005KT P6SM FEW250
     FM241400 15013G21KT P6SM FEW050 SCT250
     FM250100 17008KT P6SM SCT250=

USA.gov is the U.S. government's official web portal to all federal, state and local government web resources and services.